• Join FlightAware (Why Join?)
  • Login
  • US Flag 
12:06PM EDT


 

Airport Tracker/Info


-or-


 

Live Flight TrackerFlight Track Log ✈ XOJ578 ✈ 18-Jun-2013 ✈ KVNY - KTEB

Flight Track Log - Related Links

Times and Time Zones

All times are in EDT time to prevent confusion due to time zone crossing. See the XOJ578 flight status page for this flight to view local times or setup timezone preferences in your user account.

Time Position Orientation Groundspeed Altitude Reporting Facility
EDT Latitude Longitude Course Direction KTS MPH feet Rate Location/Type
03:06PM 34.1833 -118.4833 116° Southeast 186 214 1,700  Level Southern California TRACON
03:07PM 34.1633 -118.4331 116° Southeast 220 253 4,700 3,240 Climbing Los Angeles Center
03:08PM 34.2353 -118.4197 North 239 275 8,600 3,300 Climbing Los Angeles Center
03:09PM 34.3064 -118.4342 350° North 254 292 11,500 2,340 Climbing Los Angeles Center
03:10PM 34.3883 -118.3819 28° Northeast 320 368 13,500 2,100 Climbing Los Angeles Center
03:11PM 34.4753 -118.3142 33° Northeast 364 419 15,900 2,580 Climbing Los Angeles Center
03:12PM 34.5411 -118.2114 52° Northeast 382 440 18,900 2,700 Climbing Los Angeles Center
03:14PM 34.6136 -118.0950 53° Northeast 390 449 21,500 2,340 Climbing Los Angeles Center
03:15PM 34.6428 -117.9597 75° East 418 481 23,800 2,220 Climbing Los Angeles Center
03:16PM 34.6575 -117.8181 83° East 424 488 26,100 2,040 Climbing Los Angeles Center
03:17PM 34.6872 -117.6722 76° East 447 514 28,100 1,860 Climbing Los Angeles Center
03:18PM 34.7253 -117.5250 73° East 460 529 30,000 1,920 Climbing Los Angeles Center
03:19PM 34.7708 -117.3431 73° East 476 548 32,100 1,740 Climbing Los Angeles Center
03:20PM 34.8100 -117.1875 73° East 486 559 33,700 1,440 Climbing Los Angeles Center
03:21PM 34.8494 -117.0278 73° East 497 572 35,100 1,200 Climbing Los Angeles Center
03:22PM 34.9192 -116.8817 60° Northeast 506 582 36,200 1,200 Climbing Los Angeles Center
03:23PM 35.0294 -116.7239 49° Northeast 510 587 37,600 1,320 Climbing Los Angeles Center
03:24PM 35.1197 -116.5914 50° Northeast 512 589 39,000 1,260 Climbing Los Angeles Center
03:25PM 35.2081 -116.4625 50° Northeast 503 579 40,300 960 Climbing Los Angeles Center
03:26PM 35.2950 -116.3344 50° Northeast 493 567 41,000 300 Climbing Los Angeles Center
03:27PM 35.3844 -116.2019 50° Northeast 506 582 41,000  Level Los Angeles Center
03:28PM 35.4775 -116.0661 50° Northeast 524 603 41,000  Level Los Angeles Center
03:29PM 35.5883 -115.9014 50° Northeast 524 603 41,000  Level Los Angeles Center
03:30PM 35.6706 -115.7797 50° Northeast 523 602 41,000  Level Los Angeles Center
03:31PM 35.7789 -115.6125 51° Northeast 524 603 41,000  Level Los Angeles Center
03:32PM 35.8433 -115.4506 64° Northeast 531 611 41,000  Level Los Angeles Center
03:33PM 35.9031 -115.2856 66° East 533 613 41,000  Level Los Angeles Center
03:34PM 35.9478 -115.1561 67° East 521 600 41,000  Level Los Angeles Center
03:35PM 36.0175 -114.9569 67° East 528 608 41,000  Level Los Angeles Center
03:36PM 36.0761 -114.7914 66° East 529 609 41,000  Level Los Angeles Center
03:37PM 36.1453 -114.5925 67° East 528 608 41,000  Level Los Angeles Center
03:38PM 36.2028 -114.4269 67° East 527 606 41,000  Level Los Angeles Center
03:39PM 36.2597 -114.2622 67° East 523 602 41,000  Level Los Angeles Center
03:40PM 36.3153 -114.0967 67° East 521 600 41,000  Level Los Angeles Center
03:41PM 36.3728 -113.9317 67° East 522 601 41,000  Level Los Angeles Center
03:42PM 36.4292 -113.7647 67° East 524 603 41,000  Level Los Angeles Center
03:43PM 36.4961 -113.5644 67° East 524 603 41,000  Level Los Angeles Center
03:44PM 36.5506 -113.4058 67° East 524 603 41,000  Level Los Angeles Center
03:45PM 36.6058 -113.2378 68° East 525 604 41,000  Level Los Angeles Center
03:47PM 36.6608 -113.0706 68° East 526 605 41,000  Level Los Angeles Center
03:48PM 36.7153 -112.9033 68° East 525 604 41,000  Level Los Angeles Center
03:49PM 36.7817 -112.7025 68° East 525 604 41,000  Level Los Angeles Center
03:50PM 36.8364 -112.5350 68° East 525 604 41,000  Level Los Angeles Center
03:51PM 36.8894 -112.3672 68° East 524 603 41,000  Level Los Angeles Center
03:52PM 36.9447 -112.2003 67° East 524 603 41,000  Level Los Angeles Center
03:53PM 36.9983 -112.0317 68° East 525 604 41,000  Level Los Angeles Center
03:54PM 37.0633 -111.8289 68° East 526 605 41,000  Level Los Angeles Center
03:55PM 37.1167 -111.6600 68° East 526 605 41,000  Level Los Angeles Center
03:55PM 37.1392 -111.5908 68° East 528 608 41,000  Level Denver Center
03:56PM 37.2000 -111.3906 69° East 519 597 41,000  Level Denver Center
03:57PM 37.2522 -111.2206 69° East 525 604 41,000  Level Denver Center
03:58PM 37.3053 -111.0503 69° East 525 604 41,000  Level Denver Center
03:59PM 37.3583 -110.8786 69° East 528 608 41,000  Level Denver Center
04:00PM 37.4086 -110.7083 70° East 524 603 41,000  Level Denver Center
04:01PM 37.4617 -110.5367 69° East 526 605 41,000  Level Denver Center
04:03PM 37.5197 -110.3444 69° East 522 601 41,000  Level Denver Center
04:04PM 37.5697 -110.1786 69° East 526 605 41,000  Level Denver Center
04:05PM 37.6256 -109.9856 70° East 523 602 41,000  Level Denver Center
04:06PM 37.6747 -109.8214 69° East 522 601 41,000  Level Denver Center
04:07PM 37.7311 -109.6294 70° East 520 598 41,000  Level Denver Center
04:08PM 37.7792 -109.4650 70° East 521 600 41,000  Level Denver Center
04:09PM 37.8267 -109.3011 70° East 518 596 41,000  Level Denver Center
04:10PM 37.8817 -109.1086 70° East 520 598 41,000  Level Denver Center
04:11PM 37.9294 -108.9439 70° East 520 598 41,000  Level Denver Center
04:12PM 37.9831 -108.7506 71° East 520 598 41,000  Level Denver Center
04:13PM 38.0297 -108.5844 70° East 520 598 41,000  Level Denver Center
04:14PM 38.0814 -108.4050 70° East 517 595 41,000  Level Denver Center
04:15PM 38.1267 -108.2397 71° East 518 596 41,000  Level Denver Center
04:16PM 38.1803 -108.0467 70° East 521 600 41,000  Level Denver Center
04:17PM 38.2253 -107.8808 71° East 520 598 41,000  Level Denver Center
04:18PM 38.2772 -107.6889 71° East 517 595 41,000  Level Denver Center
04:19PM 38.3289 -107.5258 68° East 521 600 41,000  Level Denver Center
04:20PM 38.3975 -107.3411 65° Northeast 518 596 41,000  Level Denver Center
04:21PM 38.4550 -107.1836 65° Northeast 515 593 41,000  Level Denver Center
04:22PM 38.5222 -106.9972 65° Northeast 518 596 41,000  Level Denver Center
04:23PM 38.5783 -106.8378 66° East 516 594 41,000  Level Denver Center
04:24PM 38.6339 -106.6767 66° East 518 596 41,000  Level Denver Center
04:25PM 38.6992 -106.4892 66° East 518 596 41,000  Level Denver Center
04:26PM 38.7525 -106.3264 67° East 519 597 41,000  Level Denver Center
04:27PM 38.8111 -106.1506 67° East 515 593 41,100  Climbing Denver Center
04:28PM 38.8547 -105.9783 72° East 513 590 41,000 -60 Descending Denver Center
04:29PM 38.8964 -105.8069 73° East 506 582 41,000  Level Denver Center
04:30PM 38.9375 -105.5967 76° East 512 589 41,000  Level Denver Center
04:31PM 38.9578 -105.4164 82° East 514 592 41,000  Level Denver Center
04:32PM 38.9781 -105.2722 80° East 521 600 41,000  Level Denver Center
04:33PM 39.0081 -105.0603 75° East 508 585 41,000  Level Denver Center
04:34PM 39.0178 -105.0751 75° East  Level FlightAware Approximate
04:34PM 39.0347 -104.8844 79° East 506 582 41,000  Level Denver Center
04:35PM 39.0681 -104.7086 76° East 510 587 41,000  Level Denver Center
04:36PM 39.1083 -104.4989 76° East 508 585 41,000  Level Denver Center
04:37PM 39.1397 -104.3236 77° East 509 586 41,000  Level Denver Center
04:39PM 39.1739 -104.1500 76° East 506 582 41,000  Level Denver Center
04:40PM 39.2144 -103.9781 73° East 504 580 41,000  Level Denver Center
04:41PM 39.2539 -103.8047 74° East 506 582 41,000  Level Denver Center
04:42PM 39.2867 -103.6672 73° East 505 581 41,000  Level Denver Center
04:43PM 39.3422 -103.4236 73° East 507 583 41,000  Level Denver Center
04:44PM 39.3817 -103.2483 74° East 510 587 41,000  Level Denver Center
04:45PM 39.4289 -103.0386 74° East 510 587 41,000  Level Denver Center
04:46PM 39.4683 -102.8622 74° East 511 588 41,000 360 Level Denver Center
04:47PM 39.5067 -102.6867 74° East 511 588 41,800 780 Climbing Denver Center
04:48PM 39.5550 -102.5194 69° East 499 574 42,700 840 Climbing Denver Center
04:49PM 39.6103 -102.3356 69° East 493 567 43,600 720 Climbing Denver Center
04:50PM 39.6633 -102.1522 69° East 488 562 44,200 480 Climbing Denver Center
04:51PM 39.7097 -101.9953 69° East 487 560 44,700 300 Climbing Denver Center
04:52PM 39.7544 -101.8394 69° East 484 557 44,900 120 Climbing Denver Center
04:53PM 39.8058 -101.6531 70° East 489 563 45,000  Climbing Denver Center
04:54PM 39.8497 -101.4914 70° East 495 570 45,000  Level Denver Center
04:55PM 39.9019 -101.2997 70° East 503 579 45,000  Level Denver Center
04:56PM 39.9489 -101.1358 69° East 505 581 45,000  Level Denver Center
04:57PM 40.0036 -100.9431 70° East 509 586 45,000  Level Denver Center
04:58PM 40.0503 -100.7767 70° East 512 589 45,000  Level Denver Center
04:59PM 40.1025 -100.5825 71° East 511 588 45,000  Level Denver Center
05:01PM 40.1431 -100.4164 72° East 506 582 45,000  Level Denver Center
05:02PM 40.1986 -100.1950 72° East 504 580 45,000  Level Denver Center
05:03PM 40.2389 -100.0286 72° East 504 580 45,000  Level Denver Center
05:04PM 40.2781 -99.8475 74° East 506 582 45,000  Level Denver Center
05:05PM 40.3178 -99.6711 73° East 507 583 45,000  Level Denver Center
05:06PM 40.3592 -99.4564 76° East 506 582 45,000  Level Denver Center
05:07PM 40.3903 -99.2778 77° East 506 582 45,000  Level Denver Center
05:07PM 40.4042 -99.2078 75° East 507 583 45,000  Level Minneapolis Center
05:08PM 40.4417 -98.9917 77° East 508 585 45,000  Level Minneapolis Center
05:09PM 40.4725 -98.8117 77° East 508 585 45,000  Level Minneapolis Center
05:10PM 40.5031 -98.6319 77° East 508 585 45,000  Level Minneapolis Center
05:11PM 40.5283 -98.4883 77° East 508 585 45,000  Level Minneapolis Center
05:12PM 40.5639 -98.2719 78° East 508 585 45,000  Level Minneapolis Center
05:13PM 40.5953 -98.0931 77° East 507 583 45,000  Level Minneapolis Center
05:14PM 40.6308 -97.8753 78° East 509 586 45,000  Level Minneapolis Center
05:16PM 40.6603 -97.6947 78° East 508 585 45,000  Level Minneapolis Center
05:17PM 40.6897 -97.5136 78° East 507 583 45,000  Level Minneapolis Center
05:18PM 40.7211 -97.3200 78° East 509 586 45,000  Level Minneapolis Center
05:19PM 40.7500 -97.1383 78° East 508 585 45,000  Level Minneapolis Center
05:20PM 40.7781 -96.9553 79° East 510 587 45,000  Level Minneapolis Center
05:21PM 40.8067 -96.7733 78° East 510 587 45,000  Level Minneapolis Center
05:22PM 40.8406 -96.5542 78° East 509 586 45,000  Level Minneapolis Center
05:23PM 40.8681 -96.3733 79° East 507 583 45,000  Level Minneapolis Center
05:24PM 40.8947 -96.1928 79° East 507 583 45,000  Level Minneapolis Center
05:25PM 40.9225 -96.0131 78° East 505 581 45,000  Level Minneapolis Center
05:26PM 40.9475 -95.8314 80° East 506 582 45,000  Level Minneapolis Center
05:27PM 40.9792 -95.6153 79° East 505 581 45,000  Level Minneapolis Center
05:28PM 41.0061 -95.4325 79° East 508 585 45,000  Level Minneapolis Center
05:29PM 41.0325 -95.2511 79° East 506 582 45,000  Level Minneapolis Center
05:30PM 41.0581 -95.0697 79° East 505 581 45,000  Level Minneapolis Center
05:31PM 41.0825 -94.8861 80° East 506 582 45,000  Level Minneapolis Center
05:32PM 41.1131 -94.6669 79° East 506 582 45,000  Level Minneapolis Center
05:33PM 41.1378 -94.4808 80° East 507 583 45,000  Level Minneapolis Center
05:34PM 41.1622 -94.3000 80° East 507 583 45,000  Level Minneapolis Center
05:35PM 41.1853 -94.1144 81° East 507 583 45,000  Level Minneapolis Center
05:36PM 41.2100 -93.9306 80° East 508 585 45,000  Level Minneapolis Center
05:37PM 41.2347 -93.7453 80° East 510 587 45,000  Level Minneapolis Center
05:38PM 41.2625 -93.5244 80° East 510 587 45,000  Level Minneapolis Center
05:39PM 41.2847 -93.3419 81° East 507 583 45,000  Level Minneapolis Center
05:40PM 41.3075 -93.1586 81° East 505 581 45,000  Level Minneapolis Center
05:41PM 41.3289 -92.9744 81° East 506 582 45,000  Level Minneapolis Center
05:42PM 41.3511 -92.7911 81° East 505 581 45,000  Level Minneapolis Center
05:44PM 41.3783 -92.5711 81° East 504 580 45,000  Level Minneapolis Center
05:45PM 41.3983 -92.3889 82° East 502 578 45,000  Level Minneapolis Center
05:46PM 41.4219 -92.1814 81° East 510 587 45,000  Level Chicago Center
05:47PM 41.4422 -91.9989 82° East 506 582 45,000  Level Chicago Center
05:48PM 41.4622 -91.8142 82° East 510 587 45,000  Level Chicago Center
05:49PM 41.4861 -91.5928 82° East 511 588 45,000  Level Chicago Center
05:50PM 41.5058 -91.4086 82° East 510 587 45,000  Level Chicago Center
05:51PM 41.5256 -91.2231 82° East 511 588 45,000  Level Chicago Center
05:52PM 41.5442 -91.0378 82° East 511 588 45,000  Level Chicago Center
05:53PM 41.5633 -90.8531 82° East 511 588 45,000  Level Chicago Center
05:54PM 41.5853 -90.6303 82° East 510 587 45,000  Level Chicago Center
05:55PM 41.6042 -90.4347 83° East 509 586 45,000  Level Chicago Center
05:56PM 41.6231 -90.2464 82° East 510 587 45,000  Level Chicago Center
05:57PM 41.6408 -90.0589 83° East 508 585 45,000  Level Chicago Center
05:58PM 41.6589 -89.8706 83° East 509 586 45,000  Level Chicago Center
05:59PM 41.6761 -89.6850 83° East 505 581 45,000  Level Chicago Center
06:00PM 41.6939 -89.4858 83° East 504 580 45,000  Level Chicago Center
06:01PM 41.7103 -89.2994 83° East 506 582 45,000  Level Chicago Center
06:02PM 41.7247 -89.1128 84° East 508 585 45,000  Level Chicago Center
06:03PM 41.7447 -88.8872 83° East 514 592 45,000  Level Chicago Center
06:04PM 41.7603 -88.6969 84° East 520 598 45,000  Level Chicago Center
06:05PM 41.7756 -88.5072 84° East 518 596 45,000  Level Chicago Center
06:06PM 41.7906 -88.3144 84° East 522 601 45,000  Level Chicago Center
06:07PM 41.8050 -88.1231 84° East 515 593 45,000  Level Chicago Center
06:08PM 41.8181 -87.9317 85° East 513 590 45,000  Level Chicago Center
06:09PM 41.8356 -87.7008 84° East 516 594 45,000  Level Chicago Center
06:11PM 41.8489 -87.5078 85° East 519 597 45,000  Level Chicago Center
06:12PM 41.8617 -87.3167 85° East 518 596 45,000  Level Chicago Center
06:13PM 41.8758 -87.1236 84° East 521 600 45,000  Level Chicago Center
06:14PM 41.8883 -86.9319 85° East 519 597 45,000  Level Chicago Center
06:15PM 41.9014 -86.7019 86° East 518 596 45,000  Level Chicago Center
06:16PM 41.9122 -86.5378 85° East 520 598 45,000  Level Chicago Center
06:17PM 41.9272 -86.3050 85° East 522 601 45,000  Level Chicago Center
06:18PM 41.9394 -86.1125 85° East 519 597 45,000  Level Chicago Center
06:19PM 41.9506 -85.9181 86° East 519 597 45,000  Level Chicago Center
06:20PM 41.9619 -85.7225 85° East 521 600 45,000  Level Chicago Center
06:21PM 41.9742 -85.5258 85° East 523 602 45,000  Level Chicago Center
06:22PM 41.9844 -85.3294 86° East 522 601 45,000  Level Chicago Center
06:23PM 41.9944 -85.1194 86° East 525 604 45,000  Level Chicago Center
06:24PM 42.0028 -84.9225 87° East 529 609 45,000  Level Chicago Center
06:25PM 42.0119 -84.7283 86° East 524 603 45,000  Level Chicago Center
06:26PM 42.0150 -84.4942 89° East 525 604 45,000  Level Chicago Center
06:27PM 42.0169 -84.3453 89° East 518 596 45,000  Level Cleveland Center
06:28PM 42.0133 -84.1328 91° East 518 596 45,000  Level Cleveland Center
06:29PM 42.0131 -83.9369 90° East 518 596 45,000  Level Cleveland Center
06:30PM 42.0144 -83.7414 89° East 518 596 45,000  Level Cleveland Center
06:31PM 42.0156 -83.5458 89° East 518 596 45,000  Level Cleveland Center
06:32PM 42.0142 -83.3528 90° East 518 596 45,000  Level Cleveland Center
06:33PM 42.0103 -83.1542 91° East 518 596 45,000  Level Cleveland Center
06:34PM 42.0103 -82.9586 90° East 523 602 45,000  Level Cleveland Center
06:35PM 42.0100 -82.7631 90° East 523 602 45,000  Level Cleveland Center
06:36PM 42.0075 -82.5672 91° East 518 596 45,000  Level Cleveland Center
06:37PM 42.0003 -82.3742 93° East 518 596 45,000  Level Cleveland Center
06:38PM 42.0011 -82.1758 90° East 518 596 45,000  Level Cleveland Center
06:39PM 42.0033 -81.9997 89° East 518 596 45,000  Level Cleveland Center
06:40PM 42.0014 -81.8014 91° East 518 596 45,000  Level Cleveland Center
06:41PM 41.9992 -81.6031 91° East 518 596 45,000  Level Cleveland Center
06:42PM 41.9944 -81.4100 92° East 523 602 45,000  Level Cleveland Center
06:43PM 41.9875 -81.1922 92° East 528 608 45,000  Level Cleveland Center
06:44PM 41.9842 -80.9939 91° East 528 608 45,000 -180 Level Cleveland Center
06:45PM 41.9786 -80.8011 92° East 523 602 44,700 -720 Descending Cleveland Center
06:46PM 41.9725 -80.6083 92° East 522 601 43,600 -900 Descending Cleveland Center
06:47PM 41.9681 -80.4100 92° East 522 601 43,000 -300 Descending Cleveland Center
06:48PM 41.9614 -80.2172 93° East 515 593 43,000  Level Cleveland Center
06:49PM 41.9567 -80.0247 92° East 515 593 43,000  Level Cleveland Center
06:50PM 41.9514 -79.8294 92° East 520 598 43,000  Level Cleveland Center
06:51PM 41.9436 -79.6339 93° East 520 598 43,000  Level Cleveland Center
06:52PM 41.9356 -79.4389 93° East 520 598 43,000  Level Cleveland Center
06:53PM 41.9272 -79.2464 93° East 520 598 43,000  Level Cleveland Center
06:54PM 41.9206 -79.0483 93° East 520 598 43,000  Level Cleveland Center
06:55PM 41.9136 -78.8531 93° East 520 598 43,000  Level Cleveland Center
06:56PM 41.9042 -78.6553 94° East 520 598 43,000  Level Cleveland Center
06:57PM 41.8967 -78.4575 93° East 520 598 43,000  Level Cleveland Center
06:58PM 41.8844 -78.2597 95° East 520 598 43,000 -180 Level Cleveland Center
06:59PM 41.8761 -78.0622 93° East 525 604 42,700 -1,560 Descending Cleveland Center
07:00PM 41.8633 -77.8703 95° East 525 604 39,900 -2,760 Descending Cleveland Center
07:01PM 41.8325 -77.7222 106° East 512 589 37,700 -2,580 Descending New York Center
07:02PM 41.7861 -77.5531 110° East 500 575 35,200 -1,380 Descending New York Center
07:03PM 41.7394 -77.3814 110° East 488 562 35,000 -600 Descending New York Center
07:04PM 41.6925 -77.2100 110° East 488 562 34,100 -1,020 Descending New York Center
07:05PM 41.6492 -77.0478 110° East 499 574 33,100 -1,020 Descending New York Center
07:06PM 41.6000 -76.8739 111° Southeast 504 580 32,100 -1,080 Descending New York Center
07:07PM 41.5472 -76.6778 110° East 504 580 31,000 -1,080 Descending New York Center
07:08PM 41.4997 -76.5017 110° East 504 580 30,000 -960 Descending New York Center
07:09PM 41.4575 -76.3403 109° East 511 588 29,100 -1,800 Descending New York Center
07:10PM 41.4075 -76.1592 110° East 511 588 26,400 -2,700 Descending New York Center
07:11PM 41.3583 -76.0006 112° Southeast 493 567 23,800 -2,340 Descending New York Center
07:12PM 41.3075 -75.8253 111° Southeast 467 537 21,800 -2,340 Descending New York Center
07:13PM 41.2736 -75.6958 109° East 444 511 19,100 -1,980 Descending New York Center
07:14PM 41.2197 -75.5344 114° Southeast 433 498 17,900 -2,040 Descending New York Center
07:15PM 41.1828 -75.4161 112° Southeast 400 460 15,100 -3,000 Descending New York Center
07:16PM 41.1339 -75.2778 115° Southeast 379 436 12,000 -2,820 Descending New York Center
07:17PM 41.0964 -75.1653 114° Southeast 354 407 9,500 -2,160 Descending New York Center
07:18PM 41.0667 -75.0669 112° Southeast 313 360 7,800 -1,680 Descending New York Center
07:19PM 41.0450 -74.9803 108° East 283 326 6,200 -1,080 Descending New York Center
07:20PM 41.0111 -74.8736 113° Southeast 276 318 5,700 -840 Descending New York Center
07:21PM 41.0250 -74.7756 79° East 267 307 4,500 -1,260 Descending New York Center
07:22PM 41.0364 -74.6856 80° East 261 300 3,300 -780 Descending New York Center
07:23PM 40.9886 -74.6167 133° Southeast 222 255 3,000 -120 Descending New York Center
07:24PM 40.9500 -74.5667 136° Southeast 264 304 3,100  Climbing New York TRACON
07:25PM 40.8667 -74.5167 156° South 269 310 3,100  Level New York TRACON
07:26PM 40.8167 -74.5000 166° South 263 303 3,100  Level New York TRACON
07:27PM 40.7667 -74.4500 143° Southeast 212 244 3,100  Level New York TRACON
07:28PM 40.7333 -74.3833 123° Southeast 175 201 3,100 -480 Level New York TRACON
07:29PM 40.7333 -74.3333 90° East 183 211 2,200 -600 Descending New York TRACON
07:30PM 40.7333 -74.2667 90° East 167 192 2,000 -300 Descending New York TRACON
07:31PM 40.7500 -74.2167 66° East 162 186 1,600 -240 Descending New York TRACON
07:31PM 40.7833 -74.1667 49° Northeast 166 191 1,600 -240 Level New York TRACON
07:33PM 40.8167 -74.1167 49° Northeast 151 174 1,200 -600 Descending New York TRACON
07:33PM 40.8333 -74.0833 57° Northeast 127 146 500 -780 Descending New York TRACON
07:35PM 40.8500 -74.0500 52° Northeast  Level FlightAware Approximate
07:42PM 40.8501 -74.0608 52° Northeast  Level Estimated
07:43PM 40.8501 -74.0608 52° Northeast  Level Estimated